createdAt,value
2018-08-07T00:01:39.738Z,2.63
2018-08-07T00:04:08.191Z,3.90
2018-08-07T00:06:36.817Z,3.07
2018-08-07T00:09:08.433Z,3.00
2018-08-07T00:11:36.823Z,3.80
2018-08-07T00:14:05.254Z,4.00
2018-08-07T00:16:34.159Z,3.30
2018-08-07T00:19:02.850Z,4.03
2018-08-07T00:21:31.819Z,4.07
2018-08-07T00:24:00.567Z,3.30
2018-08-07T00:26:29.295Z,4.27
2018-08-07T00:28:57.951Z,3.60
2018-08-07T00:31:27.087Z,3.77
2018-08-07T00:33:55.774Z,3.40
2018-08-07T00:36:24.203Z,3.87
2018-08-07T00:38:52.607Z,3.77
2018-08-07T00:41:21.010Z,4.20
2018-08-07T00:43:49.438Z,4.07
2018-08-07T00:46:18.398Z,3.80
2018-08-07T00:48:47.066Z,3.57
2018-08-07T00:51:15.775Z,3.77
2018-08-07T00:53:44.191Z,3.77
2018-08-07T00:56:13.215Z,3.57
2018-08-07T00:58:41.850Z,4.10
2018-08-07T01:01:09.978Z,4.30
2018-08-07T01:03:38.366Z,3.73
2018-08-07T01:06:07.752Z,3.60
2018-08-07T01:08:36.740Z,4.50
2018-08-07T01:11:05.131Z,4.00
2018-08-07T01:13:33.503Z,3.40
2018-08-07T01:16:02.179Z,4.20
2018-08-07T01:18:31.175Z,4.00
2018-08-07T01:20:59.591Z,4.10
2018-08-07T01:23:28.048Z,3.70
2018-08-07T01:25:56.454Z,3.80
2018-08-07T01:28:24.861Z,3.53
2018-08-07T01:30:53.271Z,4.53
2018-08-07T01:33:22.374Z,3.90
2018-08-07T01:35:50.987Z,5.07
2018-08-07T01:38:19.739Z,3.80
2018-08-07T01:40:48.420Z,5.17
2018-08-07T01:43:16.774Z,3.67
2018-08-07T01:45:45.231Z,4.00
2018-08-07T01:48:13.622Z,4.43
2018-08-07T01:50:42.028Z,4.63
2018-08-07T01:53:10.415Z,4.03
2018-08-07T01:55:39.102Z,4.10
2018-08-07T01:58:08.031Z,4.20
2018-08-07T02:00:36.495Z,3.80
2018-08-07T02:03:05.250Z,4.00
2018-08-07T02:05:33.719Z,4.17
2018-08-07T02:08:02.327Z,5.00
2018-08-07T02:10:30.846Z,4.17
2018-08-07T02:13:00.212Z,4.30
2018-08-07T02:15:28.781Z,4.03
2018-08-07T02:17:57.526Z,5.20
2018-08-07T02:20:25.964Z,4.57
2018-08-07T02:22:54.639Z,3.87
2018-08-07T02:25:23.522Z,4.33
2018-08-07T02:27:51.922Z,4.23
2018-08-07T02:30:23.176Z,4.67
2018-08-07T02:32:55.870Z,4.10
2018-08-07T02:35:28.108Z,4.20
2018-08-07T02:37:59.946Z,5.43
2018-08-07T02:40:28.355Z,4.00
2018-08-07T02:42:57.023Z,5.00
2018-08-07T02:45:25.463Z,4.20
2018-08-07T02:47:54.391Z,5.00
2018-08-07T02:50:22.764Z,4.20
2018-08-07T02:52:51.428Z,4.50
2018-08-07T02:55:19.814Z,3.90
2018-08-07T02:57:48.222Z,4.57
2018-08-07T03:00:19.071Z,4.27
2018-08-07T03:02:47.659Z,4.53
2018-08-07T03:05:16.941Z,5.80
2018-08-07T03:07:45.620Z,4.83
2018-08-07T03:10:14.299Z,5.10
2018-08-07T03:12:42.691Z,5.33
2018-08-07T03:15:14.802Z,5.20
2018-08-07T03:17:44.686Z,4.20
2018-08-07T03:20:13.043Z,4.83
2018-08-07T03:22:41.646Z,4.17
2018-08-07T03:25:11.758Z,5.30
2018-08-07T03:27:41.832Z,4.37
2018-08-07T03:30:13.035Z,4.40
2018-08-07T03:32:41.467Z,3.90
2018-08-07T03:35:10.278Z,4.40
2018-08-07T03:37:39.492Z,4.70
2018-08-07T03:40:11.334Z,3.90
2018-08-07T03:42:39.944Z,3.83
2018-08-07T03:45:10.059Z,5.00
2018-08-07T03:47:38.479Z,5.00
2018-08-07T03:50:08.534Z,5.00
2018-08-07T03:52:36.964Z,4.50
2018-08-07T03:55:09.911Z,4.93
2018-08-07T03:57:38.703Z,5.13
2018-08-07T04:00:13.357Z,4.57
2018-08-07T04:02:43.448Z,4.57
2018-08-07T04:05:13.445Z,4.27
2018-08-07T04:07:42.120Z,5.30
2018-08-07T04:10:14.106Z,5.10
2018-08-07T04:12:42.512Z,4.90
2018-08-07T04:15:12.022Z,5.63
2018-08-07T04:17:41.075Z,5.07
2018-08-07T04:20:11.464Z,4.47
2018-08-07T04:22:39.846Z,4.20
2018-08-07T04:25:11.369Z,4.93
2018-08-07T04:27:39.835Z,5.27
2018-08-07T04:30:13.635Z,5.50
2018-08-07T04:32:42.458Z,5.43
2018-08-07T04:35:11.339Z,5.00
2018-08-07T04:37:39.711Z,5.13
2018-08-07T04:40:09.423Z,5.40
2018-08-07T04:42:38.703Z,5.37
2018-08-07T04:45:12.854Z,4.50
2018-08-07T04:47:41.871Z,5.10
2018-08-07T04:50:10.907Z,4.80
2018-08-07T04:52:39.508Z,4.90
2018-08-07T04:55:08.883Z,4.53
2018-08-07T04:57:37.339Z,4.87
2018-08-07T05:00:09.770Z,5.23
2018-08-07T05:02:38.199Z,4.13
2018-08-07T05:05:07.218Z,4.87
2018-08-07T05:07:35.647Z,4.80
2018-08-07T05:10:05.768Z,4.07
2018-08-07T05:12:34.393Z,5.60
2018-08-07T05:15:03.308Z,4.70
2018-08-07T05:17:31.942Z,4.77
2018-08-07T05:20:00.332Z,4.50
2018-08-07T05:22:29.144Z,4.40
2018-08-07T05:24:57.822Z,5.10
2018-08-07T05:27:26.227Z,4.27
2018-08-07T05:29:55.147Z,4.03
2018-08-07T05:32:23.689Z,4.63
2018-08-07T05:34:52.055Z,4.90
2018-08-07T05:37:20.742Z,4.07
2018-08-07T05:39:49.147Z,5.10
2018-08-07T05:42:17.327Z,5.17
2018-08-07T05:44:46.276Z,4.27
2018-08-07T05:47:14.714Z,4.40
2018-08-07T05:49:43.098Z,4.77
2018-08-07T05:52:11.839Z,3.97
2018-08-07T05:54:41.050Z,3.47
2018-08-07T05:57:09.423Z,3.90
2018-08-07T05:59:37.840Z,4.77
2018-08-07T06:02:06.247Z,4.43
2018-08-07T06:04:35.655Z,4.53
2018-08-07T06:07:04.559Z,5.03
2018-08-07T06:09:33.027Z,4.60
2018-08-07T06:12:02.598Z,4.63
2018-08-07T06:14:32.631Z,4.20
2018-08-07T06:17:01.137Z,4.40
2018-08-07T06:19:30.875Z,4.00
2018-08-07T06:22:00.141Z,4.00
2018-08-07T06:24:28.846Z,4.93
2018-08-07T06:26:57.446Z,3.47
2018-08-07T06:29:26.842Z,3.77
2018-08-07T06:31:55.467Z,4.50
2018-08-07T06:34:23.915Z,3.97
2018-08-07T06:36:52.270Z,3.97
2018-08-07T06:39:21.011Z,3.20
2018-08-07T06:41:51.438Z,3.20
2018-08-07T06:44:20.103Z,2.93
2018-08-07T06:46:49.423Z,3.20
2018-08-07T06:49:18.183Z,3.17
2018-08-07T06:51:46.605Z,3.73
2018-08-07T06:54:15.286Z,3.60
2018-08-07T06:56:43.783Z,3.07
2018-08-07T06:59:12.448Z,2.90
2018-08-07T07:01:41.146Z,3.80
2018-08-07T07:04:09.942Z,3.23
2018-08-07T07:06:38.358Z,3.23
2018-08-07T07:09:10.138Z,3.20
2018-08-07T07:11:39.555Z,3.30
2018-08-07T07:14:08.957Z,3.10
2018-08-07T07:16:37.927Z,3.00
2018-08-07T07:19:07.831Z,3.80
2018-08-07T07:21:36.555Z,2.50
2018-08-07T07:24:05.129Z,2.93
2018-08-07T07:26:33.748Z,3.10
2018-08-07T07:29:02.522Z,3.40
2018-08-07T07:31:30.971Z,3.73
2018-08-07T07:33:59.412Z,3.37
2018-08-07T07:36:28.219Z,2.90
2018-08-07T07:38:57.246Z,3.90
2018-08-07T07:41:26.242Z,3.60
2018-08-07T07:43:55.151Z,3.57
2018-08-07T07:46:23.563Z,2.90
2018-08-07T07:48:52.295Z,3.90
2018-08-07T07:51:22.179Z,3.80
2018-08-07T07:53:50.296Z,3.73
2018-08-07T07:56:18.882Z,4.10
2018-08-07T07:58:47.634Z,3.83
2018-08-07T08:01:16.011Z,3.20
2018-08-07T08:03:45.314Z,3.60
2018-08-07T08:06:14.831Z,4.07
2018-08-07T08:08:43.264Z,2.80
2018-08-07T08:11:12.002Z,3.57
2018-08-07T08:13:40.776Z,3.47
2018-08-07T08:16:09.780Z,3.57
2018-08-07T08:18:38.174Z,3.10
2018-08-07T08:21:06.926Z,4.10
2018-08-07T08:23:35.659Z,4.40
2018-08-07T08:26:04.094Z,4.33
2018-08-07T08:28:32.499Z,3.40
2018-08-07T08:31:01.276Z,4.30
2018-08-07T08:33:29.718Z,4.33
2018-08-07T08:35:57.881Z,3.90
2018-08-07T08:38:26.611Z,3.67
2018-08-07T08:40:55.050Z,3.80
2018-08-07T08:43:23.719Z,4.23
2018-08-07T08:45:52.126Z,3.60
2018-08-07T08:48:20.268Z,4.33
2018-08-07T08:50:48.942Z,3.90
2018-08-07T08:53:17.386Z,3.63
2018-08-07T08:55:45.776Z,3.90
2018-08-07T08:58:14.723Z,4.03
2018-08-07T09:00:43.420Z,4.20
2018-08-07T09:03:11.915Z,3.57
2018-08-07T09:05:40.638Z,4.00
2018-08-07T09:08:09.253Z,4.07
2018-08-07T09:10:37.952Z,3.90
2018-08-07T09:13:06.580Z,3.80
2018-08-07T09:15:35.267Z,3.73
2018-08-07T09:18:03.792Z,3.00
2018-08-07T09:20:32.475Z,3.53
2018-08-07T09:23:01.163Z,3.80
2018-08-07T09:25:30.694Z,4.10
2018-08-07T09:27:59.002Z,4.03
2018-08-07T09:30:29.231Z,3.80
2018-08-07T09:32:58.806Z,4.17
2018-08-07T09:35:27.440Z,3.80
2018-08-07T09:37:56.714Z,4.07
2018-08-07T09:40:25.579Z,4.47
2018-08-07T09:42:55.122Z,3.93
2018-08-07T09:45:26.474Z,4.57
2018-08-07T09:47:55.746Z,4.37
2018-08-07T09:50:24.163Z,4.03
2018-08-07T09:52:52.919Z,4.20
2018-08-07T09:55:21.567Z,4.80
2018-08-07T09:57:50.179Z,4.30
2018-08-07T10:00:26.247Z,4.90
2018-08-07T10:02:58.347Z,4.60
2018-08-07T10:05:29.324Z,4.40
2018-08-07T10:07:57.922Z,4.30
2018-08-07T10:10:26.739Z,4.43
2018-08-07T10:12:55.211Z,3.60
2018-08-07T10:15:23.590Z,3.60
2018-08-07T10:17:52.301Z,4.73
2018-08-07T10:20:20.706Z,4.20
2018-08-07T10:22:49.400Z,4.97
2018-08-07T10:25:19.248Z,4.50
2018-08-07T10:27:48.439Z,4.00
2018-08-07T10:30:18.669Z,4.43
2018-08-07T10:32:47.708Z,3.47
2018-08-07T10:35:16.643Z,3.80
2018-08-07T10:37:45.939Z,4.00
2018-08-07T10:40:17.563Z,4.20
2018-08-07T10:42:45.685Z,4.37
2018-08-07T10:45:18.787Z,4.67
2018-08-07T10:47:47.241Z,3.77
2018-08-07T10:50:19.644Z,3.40
2018-08-07T10:52:49.116Z,4.60
2018-08-07T10:55:17.719Z,4.07
2018-08-07T10:57:47.864Z,5.03
2018-08-07T11:00:24.719Z,4.13
2018-08-07T11:02:54.095Z,4.10
2018-08-07T11:05:23.247Z,3.83
2018-08-07T11:07:51.699Z,4.03
2018-08-07T11:10:20.807Z,4.00
2018-08-07T11:12:49.298Z,5.20
2018-08-07T11:15:28.167Z,4.77
2018-08-07T11:17:58.011Z,4.10
2018-08-07T11:20:26.578Z,4.00
2018-08-07T11:22:57.538Z,4.17
2018-08-07T11:25:27.802Z,3.70
2018-08-07T11:27:58.053Z,4.10
2018-08-07T11:30:27.341Z,3.17
2018-08-07T11:32:58.168Z,4.67
2018-08-07T11:35:27.014Z,3.07
2018-08-07T11:37:57.043Z,3.50
2018-08-07T11:40:26.013Z,3.57
2018-08-07T11:42:55.687Z,3.30
2018-08-07T11:45:27.126Z,3.00
2018-08-07T11:47:56.277Z,2.80
2018-08-07T11:50:27.419Z,2.73
2018-08-07T11:52:57.274Z,2.60
2018-08-07T11:55:26.491Z,2.67
2018-08-07T11:57:55.814Z,2.40
2018-08-07T12:00:31.447Z,2.03
2018-08-07T12:02:59.979Z,2.73
2018-08-07T12:05:28.726Z,2.20
2018-08-07T12:07:57.165Z,2.57
2018-08-07T12:10:25.572Z,2.90
2018-08-07T12:12:53.974Z,2.07
2018-08-07T12:15:23.891Z,2.50
2018-08-07T12:17:52.867Z,2.60
2018-08-07T12:20:21.947Z,2.67
2018-08-07T12:22:50.411Z,2.70
2018-08-07T12:25:20.070Z,2.73
2018-08-07T12:27:48.628Z,2.60
2018-08-07T12:30:33.811Z,2.20
2018-08-07T12:33:02.225Z,2.50
2018-08-07T12:35:30.656Z,2.20
2018-08-07T12:37:59.344Z,2.30
2018-08-07T12:40:29.446Z,3.10
2018-08-07T12:43:02.312Z,2.60
2018-08-07T12:45:31.771Z,1.93
2018-08-07T12:48:01.342Z,2.70
2018-08-07T12:50:29.739Z,2.60
2018-08-07T12:52:58.210Z,2.30
2018-08-07T12:55:26.927Z,2.30
2018-08-07T12:57:55.352Z,2.50
2018-08-07T13:00:26.251Z,2.60
2018-08-07T13:02:55.566Z,2.63
2018-08-07T13:05:24.594Z,3.13
2018-08-07T13:07:53.370Z,2.30
2018-08-07T13:10:23.258Z,2.47
2018-08-07T13:12:52.699Z,2.30
2018-08-07T13:15:21.900Z,2.10
2018-08-07T13:17:50.603Z,2.50
2018-08-07T13:20:19.066Z,2.60
2018-08-07T13:22:48.416Z,2.53
2018-08-07T13:25:19.246Z,2.33
2018-08-07T13:27:47.626Z,2.23
2018-08-07T13:30:18.483Z,2.47
2018-08-07T13:32:47.122Z,2.70
2018-08-07T13:35:16.239Z,2.40
2018-08-07T13:37:47.087Z,3.13
2018-08-07T13:40:17.924Z,3.40
2018-08-07T13:42:46.423Z,2.50
2018-08-07T13:45:20.672Z,2.20
2018-08-07T13:47:51.062Z,2.50
2018-08-07T13:50:22.219Z,2.50
2018-08-07T13:52:51.978Z,2.63
2018-08-07T13:55:22.027Z,2.10
2018-08-07T13:57:51.897Z,2.83
2018-08-07T14:00:26.246Z,2.90
2018-08-07T14:02:56.816Z,2.90
2018-08-07T14:05:27.519Z,2.37
2018-08-07T14:07:57.870Z,2.60
2018-08-07T14:10:27.986Z,2.50
2018-08-07T14:12:56.438Z,2.90
2018-08-07T14:15:25.371Z,3.17
2018-08-07T14:17:56.096Z,2.10
2018-08-07T14:20:26.051Z,2.30
2018-08-07T14:22:54.489Z,2.63
2018-08-07T14:25:25.297Z,3.23
2018-08-07T14:27:54.141Z,2.47
2018-08-07T14:30:24.132Z,2.30
2018-08-07T14:32:52.604Z,2.87
2018-08-07T14:35:21.834Z,2.40
2018-08-07T14:37:51.334Z,1.90
2018-08-07T14:40:21.889Z,2.53
2018-08-07T14:42:52.528Z,2.33
2018-08-07T14:45:24.131Z,2.73
2018-08-07T14:47:54.458Z,2.73
2018-08-07T14:50:25.531Z,1.97
2018-08-07T14:52:55.367Z,2.43
2018-08-07T14:55:23.645Z,2.90
2018-08-07T14:57:53.531Z,1.93
2018-08-07T15:00:28.674Z,2.50
2018-08-07T15:02:58.582Z,2.17
2018-08-07T15:05:27.028Z,2.50
2018-08-07T15:07:55.855Z,2.50
2018-08-07T15:10:25.550Z,2.30
2018-08-07T15:12:54.307Z,2.97
2018-08-07T15:15:25.390Z,2.80
2018-08-07T15:17:54.163Z,2.67
2018-08-07T15:20:24.290Z,2.67
2018-08-07T15:22:53.686Z,2.03
2018-08-07T15:25:22.727Z,2.57
2018-08-07T15:27:50.825Z,3.10
2018-08-07T15:30:21.643Z,2.80
2018-08-07T15:32:50.684Z,2.70
2018-08-07T15:35:20.750Z,2.87
2018-08-07T15:37:49.235Z,2.70
2018-08-07T15:40:18.204Z,2.30
2018-08-07T15:42:46.909Z,2.40
2018-08-07T15:45:17.729Z,2.60
2018-08-07T15:47:46.099Z,2.33
2018-08-07T15:50:16.071Z,2.97
2018-08-07T15:52:46.024Z,2.30
2018-08-07T15:55:17.423Z,2.67
2018-08-07T15:57:46.023Z,2.10
2018-08-07T16:00:22.023Z,2.33
2018-08-07T16:02:50.786Z,2.60
2018-08-07T16:05:19.600Z,2.90
2018-08-07T16:07:48.967Z,2.80
2018-08-07T16:10:18.555Z,2.67
2018-08-07T16:12:48.111Z,2.57
2018-08-07T16:15:16.954Z,2.50
2018-08-07T16:17:46.602Z,2.47
2018-08-07T16:20:16.010Z,2.90
2018-08-07T16:22:44.965Z,2.40
2018-08-07T16:25:16.293Z,2.50
2018-08-07T16:27:46.385Z,1.93
2018-08-07T16:30:17.711Z,2.60
2018-08-07T16:32:48.397Z,2.00
2018-08-07T16:35:18.016Z,3.47
2018-08-07T16:37:47.886Z,2.63
2018-08-07T16:40:18.639Z,2.70
2018-08-07T16:42:48.192Z,2.63
2018-08-07T16:45:20.696Z,2.37
2018-08-07T16:47:50.562Z,2.40
2018-08-07T16:50:21.995Z,3.13
2018-08-07T16:52:53.626Z,2.80
2018-08-07T16:55:23.955Z,2.50
2018-08-07T16:57:53.081Z,2.47
2018-08-07T17:00:21.873Z,2.33
2018-08-07T17:02:51.255Z,3.10
2018-08-07T17:05:20.959Z,2.27
2018-08-07T17:07:50.679Z,2.77
2018-08-07T17:10:24.379Z,2.60
2018-08-07T17:12:53.010Z,2.37
2018-08-07T17:15:54.902Z,2.37
2018-08-07T17:18:28.001Z,2.90
2018-08-07T17:20:57.351Z,2.23
2018-08-07T17:23:26.616Z,2.10
2018-08-07T17:25:55.312Z,2.40
2018-08-07T17:28:24.846Z,2.37
2018-08-07T17:30:53.726Z,2.90
2018-08-07T17:33:22.361Z,2.27
2018-08-07T17:35:51.094Z,2.67
2018-08-07T17:38:20.130Z,2.50
2018-08-07T17:40:48.567Z,2.47
2018-08-07T17:43:18.221Z,2.53
2018-08-07T17:45:46.696Z,2.60
2018-08-07T17:48:15.059Z,3.17
2018-08-07T17:50:43.447Z,2.83
2018-08-07T17:53:12.182Z,2.67
2018-08-07T17:55:40.551Z,2.30
2018-08-07T17:58:08.991Z,2.03
2018-08-07T18:00:37.728Z,2.27
2018-08-07T18:03:07.073Z,2.23
2018-08-07T18:05:35.492Z,2.93
2018-08-07T18:08:04.234Z,2.70
2018-08-07T18:10:32.666Z,2.77
2018-08-07T18:13:01.047Z,2.00
2018-08-07T18:15:30.060Z,2.43
2018-08-07T18:17:58.567Z,2.40
2018-08-07T18:20:28.254Z,2.50
2018-08-07T18:22:56.765Z,2.37
2018-08-07T18:25:25.212Z,2.50
2018-08-07T18:27:53.655Z,2.50
2018-08-07T18:30:23.410Z,2.27
2018-08-07T18:32:52.390Z,3.17
2018-08-07T18:35:24.591Z,2.10
2018-08-07T18:37:53.033Z,2.03
2018-08-07T18:40:21.728Z,2.70
2018-08-07T18:42:50.282Z,3.03
2018-08-07T18:45:18.975Z,2.53
2018-08-07T18:47:47.658Z,2.67
2018-08-07T18:50:21.918Z,2.57
2018-08-07T18:52:50.436Z,3.00
2018-08-07T18:55:19.149Z,2.77
2018-08-07T18:57:48.903Z,2.50
2018-08-07T19:00:18.982Z,2.07
2018-08-07T19:02:49.148Z,2.67
2018-08-07T19:05:19.418Z,2.63
2018-08-07T19:07:48.147Z,3.37
2018-08-07T19:10:17.090Z,3.43
2018-08-07T19:12:46.854Z,3.40
2018-08-07T19:15:16.322Z,3.07
2018-08-07T19:17:45.037Z,2.93
2018-08-07T19:20:15.958Z,2.30
2018-08-07T19:22:45.064Z,2.87
2018-08-07T19:25:14.374Z,2.73
2018-08-07T19:27:43.229Z,3.00
2018-08-07T19:30:13.583Z,3.30
2018-08-07T19:32:42.079Z,2.83
2018-08-07T19:35:11.879Z,3.30
2018-08-07T19:37:40.698Z,4.23
2018-08-07T19:40:11.978Z,3.67
2018-08-07T19:42:40.355Z,3.57
2018-08-07T19:45:10.167Z,3.87
2018-08-07T19:47:38.634Z,3.63
2018-08-07T19:50:08.405Z,3.17
2018-08-07T19:52:37.471Z,3.93
2018-08-07T19:55:06.722Z,2.90
2018-08-07T19:57:35.127Z,2.87
2018-08-07T20:00:04.602Z,2.63
2018-08-07T20:02:33.090Z,2.70
2018-08-07T20:05:01.731Z,2.67
2018-08-07T20:07:30.153Z,3.83
2018-08-07T20:09:58.534Z,3.00
2018-08-07T20:12:26.994Z,2.50
2018-08-07T20:14:55.375Z,3.33
2018-08-07T20:17:23.781Z,2.43
2018-08-07T20:19:52.467Z,2.80
2018-08-07T20:22:20.903Z,2.50
2018-08-07T20:24:49.542Z,2.40
2018-08-07T20:27:18.299Z,2.80
2018-08-07T20:29:47.007Z,2.80
2018-08-07T20:32:16.028Z,3.50
2018-08-07T20:34:45.183Z,3.60
2018-08-07T20:37:13.574Z,3.30
2018-08-07T20:39:42.507Z,3.53
2018-08-07T20:42:10.947Z,3.90
2018-08-07T20:44:39.572Z,3.90
2018-08-07T20:47:08.011Z,3.60
2018-08-07T20:49:36.699Z,3.13
2018-08-07T20:52:05.611Z,3.73
2018-08-07T20:54:34.040Z,3.60
2018-08-07T20:57:02.438Z,3.97
2018-08-07T20:59:31.806Z,3.67
2018-08-07T21:02:00.631Z,4.10
2018-08-07T21:04:29.062Z,3.53
2018-08-07T21:06:57.494Z,3.20
2018-08-07T21:09:25.911Z,3.07
2018-08-07T21:11:54.562Z,3.40
2018-08-07T21:14:23.362Z,4.20
2018-08-07T21:16:51.771Z,2.60
2018-08-07T21:19:20.415Z,3.37
2018-08-07T21:21:49.591Z,3.40
2018-08-07T21:24:18.052Z,3.37
2018-08-07T21:26:46.447Z,2.57
2018-08-07T21:29:15.354Z,3.27
2018-08-07T21:31:43.808Z,4.53
2018-08-07T21:34:12.239Z,2.90
2018-08-07T21:36:40.903Z,4.13
2018-08-07T21:39:10.603Z,3.33
2018-08-07T21:41:38.983Z,3.87
2018-08-07T21:44:07.587Z,4.13
2018-08-07T21:46:36.405Z,3.13
2018-08-07T21:49:05.091Z,4.90
2018-08-07T21:51:33.479Z,4.57
2018-08-07T21:54:01.902Z,3.57
2018-08-07T21:56:30.611Z,3.63
2018-08-07T21:58:59.391Z,3.20
2018-08-07T22:01:28.115Z,3.00
2018-08-07T22:03:56.887Z,3.30
2018-08-07T22:06:25.311Z,3.30
2018-08-07T22:08:54.217Z,3.20
2018-08-07T22:11:22.607Z,3.10
2018-08-07T22:13:51.291Z,3.57
2018-08-07T22:16:19.702Z,3.07
2018-08-07T22:18:48.407Z,3.43
2018-08-07T22:21:17.447Z,3.40
2018-08-07T22:23:46.432Z,3.53
2018-08-07T22:26:15.142Z,3.30
2018-08-07T22:28:43.826Z,3.20
2018-08-07T22:31:12.402Z,3.73
2018-08-07T22:33:40.798Z,3.10
2018-08-07T22:36:09.178Z,3.50
2018-08-07T22:38:38.771Z,2.67
2018-08-07T22:41:07.638Z,3.07
2018-08-07T22:43:36.035Z,3.60
2018-08-07T22:46:04.771Z,3.23
2018-08-07T22:48:33.704Z,3.80
2018-08-07T22:51:02.058Z,4.53
2018-08-07T22:53:30.963Z,4.13
2018-08-07T22:55:59.882Z,3.93
2018-08-07T22:58:29.064Z,2.83
2018-08-07T23:00:57.743Z,4.23
2018-08-07T23:03:26.114Z,3.60
2018-08-07T23:05:54.751Z,2.87
2018-08-07T23:08:24.034Z,4.00
2018-08-07T23:10:52.709Z,3.63
2018-08-07T23:13:21.367Z,3.17
2018-08-07T23:15:49.772Z,4.07
2018-08-07T23:18:18.559Z,3.20
2018-08-07T23:20:46.911Z,2.90
2018-08-07T23:23:15.555Z,4.50
2018-08-07T23:25:43.904Z,4.00
2018-08-07T23:28:12.563Z,4.40
2018-08-07T23:30:41.551Z,4.17
2018-08-07T23:33:11.160Z,3.10
2018-08-07T23:35:39.974Z,4.70
2018-08-07T23:38:08.379Z,3.63
2018-08-07T23:40:37.039Z,3.40
2018-08-07T23:43:05.447Z,3.77
2018-08-07T23:45:33.925Z,4.13
2018-08-07T23:48:02.202Z,4.00
2018-08-07T23:50:30.834Z,4.30
2018-08-07T23:52:59.257Z,3.60
2018-08-07T23:55:27.688Z,4.13
2018-08-07T23:57:56.099Z,3.03
